sensor_id;sensor_type;location;lat;lon;timestamp;pressure;altitude;pressure_sealevel;temperature;humidity
14273;BME280;7220;49.450;11.052;2023-02-02T00:00:45;98332.91;;;5.90;94.71
14273;BME280;7220;49.450;11.052;2023-02-02T00:04:45;98337.25;;;5.64;95.92
14273;BME280;7220;49.450;11.052;2023-02-02T00:08:46;98338.28;;;5.58;97.16
14273;BME280;7220;49.450;11.052;2023-02-02T00:12:46;98334.81;;;5.58;99.82
14273;BME280;7220;49.450;11.052;2023-02-02T00:16:48;98317.88;;;5.65;99.26
14273;BME280;7220;49.450;11.052;2023-02-02T00:20:49;98312.19;;;5.77;98.25
14273;BME280;7220;49.450;11.052;2023-02-02T00:24:49;98303.69;;;5.69;99.18
14273;BME280;7220;49.450;11.052;2023-02-02T00:28:50;98312.81;;;5.59;100.00
14273;BME280;7220;49.450;11.052;2023-02-02T00:32:50;98297.69;;;5.64;99.73
14273;BME280;7220;49.450;11.052;2023-02-02T00:36:52;98313.91;;;5.51;100.00
14273;BME280;7220;49.450;11.052;2023-02-02T00:40:52;98313.94;;;5.50;100.00
14273;BME280;7220;49.450;11.052;2023-02-02T00:44:53;98304.44;;;5.46;100.00
14273;BME280;7220;49.450;11.052;2023-02-02T00:49:11;98300.59;;;5.56;100.00
14273;BME280;7220;49.450;11.052;2023-02-02T00:53:12;98311.31;;;5.50;100.00
14273;BME280;7220;49.450;11.052;2023-02-02T00:57:12;98316.63;;;5.48;100.00
14273;BME280;7220;49.450;11.052;2023-02-02T01:01:20;98311.94;;;5.30;100.00
14273;BME280;7220;49.450;11.052;2023-02-02T01:05:21;98318.41;;;5.19;100.00
14273;BME280;7220;49.450;11.052;2023-02-02T01:09:22;98321.84;;;5.21;100.00
14273;BME280;7220;49.450;11.052;2023-02-02T01:13:22;98325.06;;;5.31;100.00
14273;BME280;7220;49.450;11.052;2023-02-02T01:17:22;98359.28;;;5.33;100.00
14273;BME280;7220;49.450;11.052;2023-02-02T01:26:19;98363.00;;;5.26;100.00
14273;BME280;7220;49.450;11.052;2023-02-02T01:30:20;98384.63;;;4.74;100.00
14273;BME280;7220;49.450;11.052;2023-02-02T01:34:20;98374.75;;;4.51;100.00
14273;BME280;7220;49.450;11.052;2023-02-02T01:38:22;98383.88;;;4.36;100.00
14273;BME280;7220;49.450;11.052;2023-02-02T01:42:23;98396.91;;;4.40;100.00
14273;BME280;7220;49.450;11.052;2023-02-02T01:50:28;98429.31;;;4.08;100.00
14273;BME280;7220;49.450;11.052;2023-02-02T01:54:36;98425.34;;;3.88;100.00
14273;BME280;7220;49.450;11.052;2023-02-02T01:58:39;98437.50;;;3.53;100.00
14273;BME280;7220;49.450;11.052;2023-02-02T02:02:45;98432.00;;;3.23;100.00
14273;BME280;7220;49.450;11.052;2023-02-02T02:06:47;98414.56;;;3.21;100.00
14273;BME280;7220;49.450;11.052;2023-02-02T02:10:47;98431.06;;;3.27;100.00
14273;BME280;7220;49.450;11.052;2023-02-02T02:14:50;98435.53;;;3.22;100.00
14273;BME280;7220;49.450;11.052;2023-02-02T02:37:08;98436.19;;;2.88;100.00
14273;BME280;7220;49.450;11.052;2023-02-02T02:41:15;98429.84;;;2.98;100.00
14273;BME280;7220;49.450;11.052;2023-02-02T02:45:18;98446.50;;;2.99;100.00
14273;BME280;7220;49.450;11.052;2023-02-02T02:49:19;98452.88;;;2.84;100.00
14273;BME280;7220;49.450;11.052;2023-02-02T02:53:20;98458.97;;;2.86;100.00
14273;BME280;7220;49.450;11.052;2023-02-02T02:57:33;98454.16;;;2.61;100.00
14273;BME280;7220;49.450;11.052;2023-02-02T03:01:52;98461.22;;;2.58;100.00
14273;BME280;7220;49.450;11.052;2023-02-02T03:09:55;98469.38;;;2.41;100.00
14273;BME280;7220;49.450;11.052;2023-02-02T03:13:57;98474.38;;;2.55;100.00
14273;BME280;7220;49.450;11.052;2023-02-02T03:17:57;98470.91;;;2.54;100.00
14273;BME280;7220;49.450;11.052;2023-02-02T03:21:58;98481.47;;;2.49;100.00
14273;BME280;7220;49.450;11.052;2023-02-02T03:25:58;98474.59;;;2.41;100.00
14273;BME280;7220;49.450;11.052;2023-02-02T03:29:59;98500.69;;;2.50;100.00
14273;BME280;7220;49.450;11.052;2023-02-02T03:33:59;98488.44;;;2.52;100.00
14273;BME280;7220;49.450;11.052;2023-02-02T03:38:00;98479.63;;;2.56;100.00
14273;BME280;7220;49.450;11.052;2023-02-02T03:42:01;98473.41;;;2.60;100.00
14273;BME280;7220;49.450;11.052;2023-02-02T03:46:03;98489.06;;;2.68;100.00
14273;BME280;7220;49.450;11.052;2023-02-02T03:50:05;98478.78;;;2.52;100.00
14273;BME280;7220;49.450;11.052;2023-02-02T03:54:05;98470.00;;;2.57;100.00
14273;BME280;7220;49.450;11.052;2023-02-02T03:58:05;98467.00;;;2.77;100.00
14273;BME280;7220;49.450;11.052;2023-02-02T04:02:06;98470.53;;;2.76;100.00
14273;BME280;7220;49.450;11.052;2023-02-02T04:06:06;98465.00;;;2.91;100.00
14273;BME280;7220;49.450;11.052;2023-02-02T04:10:07;98463.25;;;2.90;100.00
14273;BME280;7220;49.450;11.052;2023-02-02T04:14:08;98464.28;;;2.83;100.00
14273;BME280;7220;49.450;11.052;2023-02-02T04:18:09;98447.34;;;2.99;100.00
14273;BME280;7220;49.450;11.052;2023-02-02T04:22:09;98436.78;;;3.03;100.00
14273;BME280;7220;49.450;11.052;2023-02-02T04:26:09;98435.38;;;3.30;100.00
14273;BME280;7220;49.450;11.052;2023-02-02T04:30:10;98436.66;;;3.09;100.00
14273;BME280;7220;49.450;11.052;2023-02-02T04:34:11;98447.84;;;3.20;100.00
14273;BME280;7220;49.450;11.052;2023-02-02T04:38:11;98451.66;;;3.47;100.00
14273;BME280;7220;49.450;11.052;2023-02-02T04:42:12;98458.59;;;3.50;100.00
14273;BME280;7220;49.450;11.052;2023-02-02T04:46:12;98464.00;;;3.42;100.00
14273;BME280;7220;49.450;11.052;2023-02-02T04:50:13;98483.50;;;3.30;100.00
14273;BME280;7220;49.450;11.052;2023-02-02T04:54:13;98495.63;;;3.38;100.00
14273;BME280;7220;49.450;11.052;2023-02-02T04:58:13;98487.03;;;3.29;100.00
14273;BME280;7220;49.450;11.052;2023-02-02T05:02:14;98482.50;;;3.38;100.00
14273;BME280;7220;49.450;11.052;2023-02-02T05:06:14;98501.63;;;3.44;100.00
14273;BME280;7220;49.450;11.052;2023-02-02T05:10:15;98490.47;;;3.33;100.00
14273;BME280;7220;49.450;11.052;2023-02-02T05:14:16;98505.06;;;3.03;100.00
14273;BME280;7220;49.450;11.052;2023-02-02T05:18:17;98492.94;;;2.95;100.00
14273;BME280;7220;49.450;11.052;2023-02-02T05:22:17;98501.72;;;2.93;100.00
14273;BME280;7220;49.450;11.052;2023-02-02T05:26:22;98495.16;;;3.17;100.00
14273;BME280;7220;49.450;11.052;2023-02-02T05:30:23;98497.06;;;3.09;100.00
14273;BME280;7220;49.450;11.052;2023-02-02T05:34:24;98502.34;;;3.07;100.00
14273;BME280;7220;49.450;11.052;2023-02-02T05:38:25;98495.28;;;3.11;100.00
14273;BME280;7220;49.450;11.052;2023-02-02T05:42:25;98501.34;;;3.13;100.00
14273;BME280;7220;49.450;11.052;2023-02-02T05:46:26;98509.13;;;3.19;100.00
14273;BME280;7220;49.450;11.052;2023-02-02T05:50:26;98518.97;;;3.08;100.00
14273;BME280;7220;49.450;11.052;2023-02-02T05:54:26;98522.63;;;2.99;100.00
14273;BME280;7220;49.450;11.052;2023-02-02T05:58:27;98528.72;;;2.99;100.00
14273;BME280;7220;49.450;11.052;2023-02-02T06:02:27;98531.34;;;2.99;100.00
14273;BME280;7220;49.450;11.052;2023-02-02T06:06:27;98539.28;;;2.98;100.00
14273;BME280;7220;49.450;11.052;2023-02-02T06:10:28;98538.38;;;2.97;100.00
14273;BME280;7220;49.450;11.052;2023-02-02T06:14:30;98552.59;;;2.87;100.00
14273;BME280;7220;49.450;11.052;2023-02-02T06:18:31;98552.44;;;2.96;100.00
14273;BME280;7220;49.450;11.052;2023-02-02T06:22:31;98551.75;;;2.85;100.00
14273;BME280;7220;49.450;11.052;2023-02-02T06:26:32;98537.94;;;2.72;100.00
14273;BME280;7220;49.450;11.052;2023-02-02T06:30:32;98545.13;;;2.61;100.00
14273;BME280;7220;49.450;11.052;2023-02-02T06:34:32;98555.28;;;2.82;100.00
14273;BME280;7220;49.450;11.052;2023-02-02T06:38:33;98542.16;;;2.81;100.00
14273;BME280;7220;49.450;11.052;2023-02-02T06:42:33;98545.50;;;2.92;100.00
14273;BME280;7220;49.450;11.052;2023-02-02T06:46:35;98553.41;;;2.89;100.00
14273;BME280;7220;49.450;11.052;2023-02-02T06:50:36;98555.06;;;2.95;100.00
14273;BME280;7220;49.450;11.052;2023-02-02T06:54:37;98553.38;;;2.92;100.00
14273;BME280;7220;49.450;11.052;2023-02-02T06:58:37;98563.84;;;2.95;100.00
14273;BME280;7220;49.450;11.052;2023-02-02T07:02:38;98559.34;;;3.00;100.00
14273;BME280;7220;49.450;11.052;2023-02-02T07:06:38;98570.63;;;3.07;100.00
14273;BME280;7220;49.450;11.052;2023-02-02T07:10:39;98566.38;;;2.98;100.00
14273;BME280;7220;49.450;11.052;2023-02-02T07:14:39;98561.19;;;2.95;100.00
14273;BME280;7220;49.450;11.052;2023-02-02T07:18:40;98561.91;;;3.05;100.00
14273;BME280;7220;49.450;11.052;2023-02-02T07:22:42;98573.25;;;3.06;100.00
14273;BME280;7220;49.450;11.052;2023-02-02T07:26:42;98573.22;;;3.09;100.00
14273;BME280;7220;49.450;11.052;2023-02-02T07:30:42;98582.28;;;2.91;100.00
14273;BME280;7220;49.450;11.052;2023-02-02T07:34:43;98579.31;;;3.09;100.00
14273;BME280;7220;49.450;11.052;2023-02-02T07:38:44;98583.84;;;3.03;100.00
14273;BME280;7220;49.450;11.052;2023-02-02T07:42:46;98580.94;;;3.16;100.00
14273;BME280;7220;49.450;11.052;2023-02-02T07:46:47;98568.66;;;3.20;100.00
14273;BME280;7220;49.450;11.052;2023-02-02T07:50:47;98583.41;;;3.27;100.00
14273;BME280;7220;49.450;11.052;2023-02-02T07:54:48;98566.88;;;3.21;100.00
14273;BME280;7220;49.450;11.052;2023-02-02T07:58:50;98569.03;;;3.47;100.00
14273;BME280;7220;49.450;11.052;2023-02-02T08:02:51;98577.97;;;3.37;100.00
14273;BME280;7220;49.450;11.052;2023-02-02T08:06:51;98580.50;;;3.41;100.00
14273;BME280;7220;49.450;11.052;2023-02-02T08:10:53;98569.69;;;3.58;100.00
14273;BME280;7220;49.450;11.052;2023-02-02T08:14:53;98578.56;;;3.53;100.00
14273;BME280;7220;49.450;11.052;2023-02-02T08:18:53;98567.75;;;3.68;100.00
14273;BME280;7220;49.450;11.052;2023-02-02T08:22:55;98574.06;;;3.58;100.00
14273;BME280;7220;49.450;11.052;2023-02-02T08:26:55;98584.09;;;3.37;100.00
14273;BME280;7220;49.450;11.052;2023-02-02T08:30:55;98577.25;;;3.28;100.00
14273;BME280;7220;49.450;11.052;2023-02-02T08:34:56;98588.59;;;3.30;100.00
14273;BME280;7220;49.450;11.052;2023-02-02T08:39:05;98583.28;;;3.34;100.00
14273;BME280;7220;49.450;11.052;2023-02-02T08:43:06;98578.88;;;3.34;100.00
14273;BME280;7220;49.450;11.052;2023-02-02T08:47:06;98586.75;;;3.36;100.00
14273;BME280;7220;49.450;11.052;2023-02-02T08:51:08;98592.75;;;3.42;100.00
14273;BME280;7220;49.450;11.052;2023-02-02T08:55:09;98586.75;;;3.36;100.00
14273;BME280;7220;49.450;11.052;2023-02-02T08:59:09;98592.84;;;3.38;100.00
14273;BME280;7220;49.450;11.052;2023-02-02T09:03:10;98578.97;;;3.31;100.00
14273;BME280;7220;49.450;11.052;2023-02-02T09:07:10;98597.28;;;3.36;100.00
14273;BME280;7220;49.450;11.052;2023-02-02T09:11:13;98583.44;;;3.24;100.00
14273;BME280;7220;49.450;11.052;2023-02-02T09:15:13;98589.34;;;3.37;100.00
14273;BME280;7220;49.450;11.052;2023-02-02T09:19:14;98600.78;;;3.35;100.00
14273;BME280;7220;49.450;11.052;2023-02-02T09:23:14;98586.75;;;3.36;100.00
14273;BME280;7220;49.450;11.052;2023-02-02T09:27:14;98596.13;;;3.49;100.00
14273;BME280;7220;49.450;11.052;2023-02-02T09:31:15;98593.56;;;3.46;100.00
14273;BME280;7220;49.450;11.052;2023-02-02T09:35:15;98602.25;;;3.51;100.00
14273;BME280;7220;49.450;11.052;2023-02-02T09:39:15;98597.81;;;3.53;100.00
14273;BME280;7220;49.450;11.052;2023-02-02T09:51:57;98610.41;;;3.36;100.00
14273;BME280;7220;49.450;11.052;2023-02-02T09:55:59;98616.31;;;3.47;100.00
14273;BME280;7220;49.450;11.052;2023-02-02T10:00:04;98605.88;;;3.44;100.00
14273;BME280;7220;49.450;11.052;2023-02-02T10:04:22;98609.22;;;3.52;100.00
14273;BME280;7220;49.450;11.052;2023-02-02T10:08:52;98602.94;;;3.61;100.00
14273;BME280;7220;49.450;11.052;2023-02-02T10:13:19;98590.97;;;3.90;100.00
14273;BME280;7220;49.450;11.052;2023-02-02T10:25:38;98589.31;;;4.26;100.00
14273;BME280;7220;49.450;11.052;2023-02-02T10:30:17;98584.94;;;4.65;100.00
14273;BME280;7220;49.450;11.052;2023-02-02T10:47:28;98576.84;;;5.76;100.00
14273;BME280;7220;49.450;11.052;2023-02-02T10:51:29;98581.34;;;5.73;100.00
14273;BME280;7220;49.450;11.052;2023-02-02T10:55:40;98565.22;;;5.83;100.00
14273;BME280;7220;49.450;11.052;2023-02-02T11:04:29;98568.00;;;5.77;100.00
14273;BME280;7220;49.450;11.052;2023-02-02T11:08:49;98564.16;;;6.21;100.00
14273;BME280;7220;49.450;11.052;2023-02-02T11:12:56;98561.25;;;6.30;100.00
14273;BME280;7220;49.450;11.052;2023-02-02T11:17:01;98554.31;;;6.26;100.00
14273;BME280;7220;49.450;11.052;2023-02-02T11:21:02;98579.25;;;6.45;100.00
14273;BME280;7220;49.450;11.052;2023-02-02T11:25:35;98568.34;;;6.56;100.00
14273;BME280;7220;49.450;11.052;2023-02-02T11:33:39;98576.19;;;6.29;100.00
14273;BME280;7220;49.450;11.052;2023-02-02T11:37:59;98573.91;;;6.49;100.00
14273;BME280;7220;49.450;11.052;2023-02-02T11:42:12;98573.09;;;6.45;100.00
14273;BME280;7220;49.450;11.052;2023-02-02T11:46:23;98577.16;;;6.57;100.00
14273;BME280;7220;49.450;11.052;2023-02-02T11:50:28;98579.94;;;6.52;100.00
14273;BME280;7220;49.450;11.052;2023-02-02T11:54:31;98570.97;;;6.28;100.00
14273;BME280;7220;49.450;11.052;2023-02-02T11:58:52;98582.88;;;6.41;100.00
14273;BME280;7220;49.450;11.052;2023-02-02T12:02:52;98600.72;;;6.33;100.00
14273;BME280;7220;49.450;11.052;2023-02-02T12:06:52;98577.03;;;6.31;100.00
14273;BME280;7220;49.450;11.052;2023-02-02T12:10:59;98595.28;;;6.39;100.00
14273;BME280;7220;49.450;11.052;2023-02-02T12:19:33;98578.00;;;6.29;100.00
14273;BME280;7220;49.450;11.052;2023-02-02T12:23:44;98578.13;;;6.24;100.00
14273;BME280;7220;49.450;11.052;2023-02-02T12:40:56;98596.69;;;6.51;100.00
14273;BME280;7220;49.450;11.052;2023-02-02T12:54:29;98599.41;;;6.48;100.00
14273;BME280;7220;49.450;11.052;2023-02-02T13:03:17;98609.63;;;6.60;100.00
14273;BME280;7220;49.450;11.052;2023-02-02T13:07:31;98602.75;;;6.55;100.00
14273;BME280;7220;49.450;11.052;2023-02-02T13:11:48;98607.47;;;6.43;100.00
14273;BME280;7220;49.450;11.052;2023-02-02T13:15:54;98608.72;;;6.60;100.00
14273;BME280;7220;49.450;11.052;2023-02-02T13:20:05;98615.53;;;6.67;100.00
14273;BME280;7220;49.450;11.052;2023-02-02T13:24:13;98619.22;;;6.63;100.00
14273;BME280;7220;49.450;11.052;2023-02-02T13:28:23;98617.81;;;6.79;100.00
14273;BME280;7220;49.450;11.052;2023-02-02T13:32:36;98617.00;;;6.77;100.00
14273;BME280;7220;49.450;11.052;2023-02-02T13:36:38;98619.34;;;6.87;100.00
14273;BME280;7220;49.450;11.052;2023-02-02T13:40:43;98665.72;;;6.69;100.00
14273;BME280;7220;49.450;11.052;2023-02-02T13:44:49;98639.78;;;6.52;100.00
14273;BME280;7220;49.450;11.052;2023-02-02T13:49:05;98645.44;;;6.69;100.00
14273;BME280;7220;49.450;11.052;2023-02-02T13:53:32;98657.41;;;6.51;100.00
14273;BME280;7220;49.450;11.052;2023-02-02T14:02:20;98661.56;;;6.30;100.00
14273;BME280;7220;49.450;11.052;2023-02-02T14:06:25;98662.84;;;6.15;100.00
14273;BME280;7220;49.450;11.052;2023-02-02T14:10:30;98664.63;;;6.14;100.00
14273;BME280;7220;49.450;11.052;2023-02-02T14:14:32;98676.03;;;6.17;100.00
14273;BME280;7220;49.450;11.052;2023-02-02T14:22:50;98692.91;;;6.09;100.00
14273;BME280;7220;49.450;11.052;2023-02-02T14:44:02;98696.38;;;6.11;100.00
14273;BME280;7220;49.450;11.052;2023-02-02T14:52:19;98722.69;;;6.14;100.00
14273;BME280;7220;49.450;11.052;2023-02-02T15:00:37;98731.88;;;5.98;100.00
14273;BME280;7220;49.450;11.052;2023-02-02T15:04:39;98749.47;;;5.63;100.00
14273;BME280;7220;49.450;11.052;2023-02-02T15:08:39;98762.25;;;5.44;100.00
14273;BME280;7220;49.450;11.052;2023-02-02T15:12:43;98767.47;;;5.45;100.00
14273;BME280;7220;49.450;11.052;2023-02-02T15:16:44;98769.75;;;5.23;100.00
14273;BME280;7220;49.450;11.052;2023-02-02T15:20:47;98775.13;;;5.17;100.00
14273;BME280;7220;49.450;11.052;2023-02-02T15:24:49;98796.47;;;5.06;100.00
14273;BME280;7220;49.450;11.052;2023-02-02T15:28:54;98796.66;;;4.97;100.00
14273;BME280;7220;49.450;11.052;2023-02-02T15:32:57;98805.72;;;4.83;100.00
14273;BME280;7220;49.450;11.052;2023-02-02T15:37:03;98814.41;;;4.88;100.00
14273;BME280;7220;49.450;11.052;2023-02-02T15:41:31;98822.22;;;4.92;100.00
14273;BME280;7220;49.450;11.052;2023-02-02T15:45:37;98844.09;;;4.95;100.00
14273;BME280;7220;49.450;11.052;2023-02-02T15:49:42;98846.06;;;4.85;100.00
14273;BME280;7220;49.450;11.052;2023-02-02T15:53:47;98853.25;;;4.77;100.00
14273;BME280;7220;49.450;11.052;2023-02-02T15:57:48;98849.72;;;4.78;100.00
14273;BME280;7220;49.450;11.052;2023-02-02T16:06:06;98876.41;;;4.60;100.00
14273;BME280;7220;49.450;11.052;2023-02-02T16:10:15;98873.47;;;4.75;100.00
14273;BME280;7220;49.450;11.052;2023-02-02T16:14:17;98879.72;;;4.71;100.00
14273;BME280;7220;49.450;11.052;2023-02-02T16:18:18;98896.56;;;4.61;100.00
14273;BME280;7220;49.450;11.052;2023-02-02T16:22:20;98898.31;;;4.62;100.00
14273;BME280;7220;49.450;11.052;2023-02-02T16:26:26;98902.78;;;4.56;100.00
14273;BME280;7220;49.450;11.052;2023-02-02T16:30:30;98904.63;;;4.51;100.00
14273;BME280;7220;49.450;11.052;2023-02-02T16:34:51;98916.31;;;4.35;100.00
14273;BME280;7220;49.450;11.052;2023-02-02T16:38:53;98928.56;;;4.36;100.00
14273;BME280;7220;49.450;11.052;2023-02-02T16:47:36;98939.03;;;4.40;100.00
14273;BME280;7220;49.450;11.052;2023-02-02T16:51:37;98943.16;;;4.55;100.00
14273;BME280;7220;49.450;11.052;2023-02-02T16:55:37;98951.97;;;4.54;100.00
14273;BME280;7220;49.450;11.052;2023-02-02T16:59:38;98950.38;;;4.44;100.00
14273;BME280;7220;49.450;11.052;2023-02-02T17:03:44;98959.25;;;4.37;100.00
14273;BME280;7220;49.450;11.052;2023-02-02T17:07:48;98967.16;;;4.37;100.00
14273;BME280;7220;49.450;11.052;2023-02-02T17:12:01;98983.59;;;4.51;100.00
14273;BME280;7220;49.450;11.052;2023-02-02T17:16:02;98982.72;;;4.49;100.00
14273;BME280;7220;49.450;11.052;2023-02-02T17:20:04;99004.56;;;4.56;100.00
14273;BME280;7220;49.450;11.052;2023-02-02T17:24:05;98996.91;;;4.42;100.00
14273;BME280;7220;49.450;11.052;2023-02-02T17:28:09;98989.81;;;4.47;100.00
14273;BME280;7220;49.450;11.052;2023-02-02T17:32:12;99010.91;;;4.44;100.00
14273;BME280;7220;49.450;11.052;2023-02-02T17:36:12;98992.41;;;4.49;100.00
14273;BME280;7220;49.450;11.052;2023-02-02T17:40:14;99020.41;;;4.53;100.00
14273;BME280;7220;49.450;11.052;2023-02-02T17:44:15;99020.50;;;4.48;100.00
14273;BME280;7220;49.450;11.052;2023-02-02T17:48:15;99012.41;;;4.61;100.00
14273;BME280;7220;49.450;11.052;2023-02-02T17:52:16;99022.19;;;4.52;100.00
14273;BME280;7220;49.450;11.052;2023-02-02T17:56:17;99034.41;;;4.55;100.00
14273;BME280;7220;49.450;11.052;2023-02-02T18:00:20;99038.50;;;4.73;100.00
14273;BME280;7220;49.450;11.052;2023-02-02T18:04:21;99029.72;;;4.74;100.00
14273;BME280;7220;49.450;11.052;2023-02-02T18:08:23;99047.22;;;4.78;100.00
14273;BME280;7220;49.450;11.052;2023-02-02T18:12:24;99034.94;;;4.77;100.00
14273;BME280;7220;49.450;11.052;2023-02-02T18:16:24;99046.38;;;4.76;100.00
14273;BME280;7220;49.450;11.052;2023-02-02T18:20:25;99030.69;;;4.70;100.00
14273;BME280;7220;49.450;11.052;2023-02-02T18:24:25;99032.44;;;4.69;100.00
14273;BME280;7220;49.450;11.052;2023-02-02T18:28:25;99042.88;;;4.74;100.00
14273;BME280;7220;49.450;11.052;2023-02-02T18:32:26;99054.22;;;4.79;100.00
14273;BME280;7220;49.450;11.052;2023-02-02T18:36:26;99047.16;;;4.81;100.00
14273;BME280;7220;49.450;11.052;2023-02-02T18:40:26;99042.09;;;4.69;100.00
14273;BME280;7220;49.450;11.052;2023-02-02T18:44:27;99044.63;;;4.75;100.00
14273;BME280;7220;49.450;11.052;2023-02-02T18:48:28;99034.38;;;4.58;100.00
14273;BME280;7220;49.450;11.052;2023-02-02T18:52:32;99054.47;;;4.64;100.00
14273;BME280;7220;49.450;11.052;2023-02-02T18:56:33;99043.16;;;4.57;100.00
14273;BME280;7220;49.450;11.052;2023-02-02T19:00:33;99057.31;;;4.50;100.00
14273;BME280;7220;49.450;11.052;2023-02-02T19:04:33;99056.28;;;4.58;100.00
14273;BME280;7220;49.450;11.052;2023-02-02T19:08:34;99058.19;;;4.50;100.00
14273;BME280;7220;49.450;11.052;2023-02-02T19:12:34;99075.69;;;4.54;100.00
14273;BME280;7220;49.450;11.052;2023-02-02T19:16:34;99068.56;;;4.60;100.00
14273;BME280;7220;49.450;11.052;2023-02-02T19:20:34;99059.00;;;4.55;100.00
14273;BME280;7220;49.450;11.052;2023-02-02T19:24:38;99072.94;;;4.61;100.00
14273;BME280;7220;49.450;11.052;2023-02-02T19:28:38;99065.91;;;4.61;100.00
14273;BME280;7220;49.450;11.052;2023-02-02T19:32:39;99057.22;;;4.56;100.00
14273;BME280;7220;49.450;11.052;2023-02-02T19:36:40;99062.38;;;4.62;100.00
14273;BME280;7220;49.450;11.052;2023-02-02T19:40:46;99068.47;;;4.66;100.00
14273;BME280;7220;49.450;11.052;2023-02-02T19:44:47;99051.78;;;4.68;100.00
14273;BME280;7220;49.450;11.052;2023-02-02T19:48:50;99055.22;;;4.70;100.00
14273;BME280;7220;49.450;11.052;2023-02-02T19:52:53;99038.22;;;4.92;100.00
14273;BME280;7220;49.450;11.052;2023-02-02T19:57:25;99067.41;;;4.78;100.00
14273;BME280;7220;49.450;11.052;2023-02-02T20:01:32;99064.78;;;4.79;100.00
14273;BME280;7220;49.450;11.052;2023-02-02T20:05:37;99067.25;;;4.87;100.00
14273;BME280;7220;49.450;11.052;2023-02-02T20:09:37;99067.63;;;5.18;100.00
14273;BME280;7220;49.450;11.052;2023-02-02T20:13:42;99072.16;;;5.10;100.00
14273;BME280;7220;49.450;11.052;2023-02-02T20:17:44;99070.44;;;5.08;100.00
14273;BME280;7220;49.450;11.052;2023-02-02T20:21:50;99062.66;;;5.00;100.00
14273;BME280;7220;49.450;11.052;2023-02-02T20:25:50;99062.28;;;5.21;100.00
14273;BME280;7220;49.450;11.052;2023-02-02T20:29:53;99060.19;;;5.41;100.00
14273;BME280;7220;49.450;11.052;2023-02-02T20:33:54;99049.81;;;5.30;100.00
14273;BME280;7220;49.450;11.052;2023-02-02T20:37:56;99063.44;;;5.53;100.00
14273;BME280;7220;49.450;11.052;2023-02-02T20:41:57;99077.38;;;5.60;100.00
14273;BME280;7220;49.450;11.052;2023-02-02T20:45:57;99067.59;;;5.67;100.00
14273;BME280;7220;49.450;11.052;2023-02-02T20:49:58;99058.47;;;5.82;100.00
14273;BME280;7220;49.450;11.052;2023-02-02T20:54:00;99068.75;;;5.96;100.00
14273;BME280;7220;49.450;11.052;2023-02-02T20:58:03;99068.69;;;6.00;100.00
14273;BME280;7220;49.450;11.052;2023-02-02T21:02:04;99071.44;;;5.94;100.00
14273;BME280;7220;49.450;11.052;2023-02-02T21:06:04;99069.84;;;5.85;100.00
14273;BME280;7220;49.450;11.052;2023-02-02T21:10:05;99087.13;;;6.04;100.00
14273;BME280;7220;49.450;11.052;2023-02-02T21:14:06;99093.41;;;5.95;100.00
14273;BME280;7220;49.450;11.052;2023-02-02T21:18:06;99094.44;;;5.88;100.00
14273;BME280;7220;49.450;11.052;2023-02-02T21:22:06;99094.44;;;5.88;100.00
14273;BME280;7220;49.450;11.052;2023-02-02T21:26:07;99088.16;;;5.93;100.00
14273;BME280;7220;49.450;11.052;2023-02-02T21:30:09;99096.97;;;5.92;100.00
14273;BME280;7220;49.450;11.052;2023-02-02T21:34:10;99096.03;;;5.96;100.00
14273;BME280;7220;49.450;11.052;2023-02-02T21:38:13;99087.19;;;5.99;100.00
14273;BME280;7220;49.450;11.052;2023-02-02T21:42:20;99080.28;;;5.90;100.00
14273;BME280;7220;49.450;11.052;2023-02-02T21:46:26;99082.59;;;6.09;100.00
14273;BME280;7220;49.450;11.052;2023-02-02T21:50:28;99093.16;;;6.09;100.00
14273;BME280;7220;49.450;11.052;2023-02-02T21:54:35;99074.78;;;6.04;100.00
14273;BME280;7220;49.450;11.052;2023-02-02T21:58:37;99071.28;;;6.02;100.00
14273;BME280;7220;49.450;11.052;2023-02-02T22:02:39;99065.50;;;5.83;100.00
14273;BME280;7220;49.450;11.052;2023-02-02T22:06:44;99074.16;;;5.90;100.00
14273;BME280;7220;49.450;11.052;2023-02-02T22:10:45;99073.13;;;6.00;100.00
14273;BME280;7220;49.450;11.052;2023-02-02T22:14:47;99088.03;;;6.01;100.00
14273;BME280;7220;49.450;11.052;2023-02-02T22:18:48;99080.22;;;5.95;100.00
14273;BME280;7220;49.450;11.052;2023-02-02T22:22:50;99085.56;;;5.92;100.00
14273;BME280;7220;49.450;11.052;2023-02-02T22:26:50;99089.91;;;5.94;100.00
14273;BME280;7220;49.450;11.052;2023-02-02T22:30:52;99093.66;;;5.82;100.00
14273;BME280;7220;49.450;11.052;2023-02-02T22:34:52;99093.28;;;6.01;100.00
14273;BME280;7220;49.450;11.052;2023-02-02T22:38:52;99077.56;;;5.95;100.00
14273;BME280;7220;49.450;11.052;2023-02-02T22:42:55;99081.84;;;6.02;100.00
14273;BME280;7220;49.450;11.052;2023-02-02T22:46:55;99078.44;;;5.95;100.00
14273;BME280;7220;49.450;11.052;2023-02-02T22:50:56;99084.44;;;6.05;100.00
14273;BME280;7220;49.450;11.052;2023-02-02T22:54:56;99084.63;;;5.94;100.00
14273;BME280;7220;49.450;11.052;2023-02-02T22:58:56;99087.72;;;5.71;100.00
14273;BME280;7220;49.450;11.052;2023-02-02T23:02:57;99086.78;;;5.74;100.00
14273;BME280;7220;49.450;11.052;2023-02-02T23:06:57;99073.00;;;5.61;100.00
14273;BME280;7220;49.450;11.052;2023-02-02T23:10:58;99077.13;;;5.74;100.00
14273;BME280;7220;49.450;11.052;2023-02-02T23:14:58;99099.97;;;5.75;100.00
14273;BME280;7220;49.450;11.052;2023-02-02T23:18:58;99097.75;;;5.52;100.00
14273;BME280;7220;49.450;11.052;2023-02-02T23:22:59;99112.25;;;5.76;100.00
14273;BME280;7220;49.450;11.052;2023-02-02T23:26:59;99112.53;;;5.61;100.00
14273;BME280;7220;49.450;11.052;2023-02-02T23:30:59;99107.66;;;5.86;100.00
14273;BME280;7220;49.450;11.052;2023-02-02T23:35:01;99098.44;;;5.62;100.00
14273;BME280;7220;49.450;11.052;2023-02-02T23:39:01;99086.78;;;5.74;100.00
14273;BME280;7220;49.450;11.052;2023-02-02T23:43:01;99105.78;;;5.91;100.00
14273;BME280;7220;49.450;11.052;2023-02-02T23:47:02;99098.03;;;5.83;100.00
14273;BME280;7220;49.450;11.052;2023-02-02T23:51:03;99090.03;;;5.88;100.00